sensor_id;sensor_type;location;lat;lon;timestamp;temperature;humidity
9043;DHT22;4556;49.150;8.808;2023-05-14T00:00:58;13.10;99.90
9043;DHT22;4556;49.150;8.808;2023-05-14T00:03:31;12.30;99.90
9043;DHT22;4556;49.150;8.808;2023-05-14T00:05:59;13.00;99.90
9043;DHT22;4556;49.150;8.808;2023-05-14T00:08:39;12.40;99.90
9043;DHT22;4556;49.150;8.808;2023-05-14T00:11:20;12.40;99.90
9043;DHT22;4556;49.150;8.808;2023-05-14T00:13:52;11.70;99.90
9043;DHT22;4556;49.150;8.808;2023-05-14T00:16:43;11.60;99.90
9043;DHT22;4556;49.150;8.808;2023-05-14T00:19:10;11.30;99.90
9043;DHT22;4556;49.150;8.808;2023-05-14T00:21:37;11.50;99.90
9043;DHT22;4556;49.150;8.808;2023-05-14T00:24:07;11.90;99.90
9043;DHT22;4556;49.150;8.808;2023-05-14T00:26:37;11.40;99.90
9043;DHT22;4556;49.150;8.808;2023-05-14T00:29:09;11.30;99.90
9043;DHT22;4556;49.150;8.808;2023-05-14T00:31:36;11.20;99.90
9043;DHT22;4556;49.150;8.808;2023-05-14T00:34:15;11.20;99.90
9043;DHT22;4556;49.150;8.808;2023-05-14T00:36:49;11.10;99.90
9043;DHT22;4556;49.150;8.808;2023-05-14T00:39:17;11.10;99.90
9043;DHT22;4556;49.150;8.808;2023-05-14T00:41:49;11.00;99.90
9043;DHT22;4556;49.150;8.808;2023-05-14T00:44:30;10.90;99.90
9043;DHT22;4556;49.150;8.808;2023-05-14T00:47:02;10.90;99.90
9043;DHT22;4556;49.150;8.808;2023-05-14T00:49:29;10.80;99.90
9043;DHT22;4556;49.150;8.808;2023-05-14T00:52:04;10.80;99.90
9043;DHT22;4556;49.150;8.808;2023-05-14T00:54:32;10.70;99.90
9043;DHT22;4556;49.150;8.808;2023-05-14T00:56:59;10.80;99.90
9043;DHT22;4556;49.150;8.808;2023-05-14T00:59:28;10.60;99.90
9043;DHT22;4556;49.150;8.808;2023-05-14T01:01:57;10.60;99.90
9043;DHT22;4556;49.150;8.808;2023-05-14T01:04:30;11.90;99.90
9043;DHT22;4556;49.150;8.808;2023-05-14T01:07:15;10.50;99.90
9043;DHT22;4556;49.150;8.808;2023-05-14T01:09:58;10.50;99.90
9043;DHT22;4556;49.150;8.808;2023-05-14T01:12:37;10.90;99.90
9043;DHT22;4556;49.150;8.808;2023-05-14T01:15:28;10.50;99.90
9043;DHT22;4556;49.150;8.808;2023-05-14T01:18:03;11.00;99.90
9043;DHT22;4556;49.150;8.808;2023-05-14T01:23:01;10.90;99.90
9043;DHT22;4556;49.150;8.808;2023-05-14T01:25:30;11.00;99.90
9043;DHT22;4556;49.150;8.808;2023-05-14T01:28:05;11.00;99.90
9043;DHT22;4556;49.150;8.808;2023-05-14T01:30:35;11.70;99.90
9043;DHT22;4556;49.150;8.808;2023-05-14T01:33:10;11.00;99.90
9043;DHT22;4556;49.150;8.808;2023-05-14T01:35:47;11.00;99.90
9043;DHT22;4556;49.150;8.808;2023-05-14T01:42:24;11.10;99.90
9043;DHT22;4556;49.150;8.808;2023-05-14T01:47:38;11.10;99.90
9043;DHT22;4556;49.150;8.808;2023-05-14T01:50:08;11.20;99.90
9043;DHT22;4556;49.150;8.808;2023-05-14T01:52:36;11.10;99.90
9043;DHT22;4556;49.150;8.808;2023-05-14T01:55:04;11.10;99.90
9043;DHT22;4556;49.150;8.808;2023-05-14T01:57:43;11.10;99.90
9043;DHT22;4556;49.150;8.808;2023-05-14T02:00:11;11.00;99.90
9043;DHT22;4556;49.150;8.808;2023-05-14T02:02:38;11.00;99.90
9043;DHT22;4556;49.150;8.808;2023-05-14T02:05:12;11.10;99.90
9043;DHT22;4556;49.150;8.808;2023-05-14T02:07:39;10.90;99.90
9043;DHT22;4556;49.150;8.808;2023-05-14T02:10:07;10.90;99.90
9043;DHT22;4556;49.150;8.808;2023-05-14T02:12:51;10.70;99.90
9043;DHT22;4556;49.150;8.808;2023-05-14T02:15:18;11.80;99.90
9043;DHT22;4556;49.150;8.808;2023-05-14T02:17:52;10.40;99.90
9043;DHT22;4556;49.150;8.808;2023-05-14T02:20:21;10.40;99.90
9043;DHT22;4556;49.150;8.808;2023-05-14T02:22:51;10.30;99.90
9043;DHT22;4556;49.150;8.808;2023-05-14T02:25:18;10.10;99.90
9043;DHT22;4556;49.150;8.808;2023-05-14T02:27:47;10.00;99.90
9043;DHT22;4556;49.150;8.808;2023-05-14T02:30:17;10.00;99.90
9043;DHT22;4556;49.150;8.808;2023-05-14T02:32:54;10.00;99.90
9043;DHT22;4556;49.150;8.808;2023-05-14T02:35:22;10.90;99.90
9043;DHT22;4556;49.150;8.808;2023-05-14T02:37:49;9.90;99.90
9043;DHT22;4556;49.150;8.808;2023-05-14T02:40:19;10.40;99.90
9043;DHT22;4556;49.150;8.808;2023-05-14T02:43:06;9.70;99.90
9043;DHT22;4556;49.150;8.808;2023-05-14T02:45:35;9.20;99.90
9043;DHT22;4556;49.150;8.808;2023-05-14T02:48:02;9.40;99.90
9043;DHT22;4556;49.150;8.808;2023-05-14T02:50:29;9.50;99.90
9043;DHT22;4556;49.150;8.808;2023-05-14T02:52:56;10.20;99.90
9043;DHT22;4556;49.150;8.808;2023-05-14T02:55:23;9.40;99.90
9043;DHT22;4556;49.150;8.808;2023-05-14T02:58:15;9.20;99.90
9043;DHT22;4556;49.150;8.808;2023-05-14T03:00:44;9.30;99.90
9043;DHT22;4556;49.150;8.808;2023-05-14T03:03:10;9.00;99.90
9043;DHT22;4556;49.150;8.808;2023-05-14T03:05:53;9.00;99.90
9043;DHT22;4556;49.150;8.808;2023-05-14T03:08:35;8.80;99.90
9043;DHT22;4556;49.150;8.808;2023-05-14T03:11:05;8.70;99.90
9043;DHT22;4556;49.150;8.808;2023-05-14T03:13:36;8.80;99.90
9043;DHT22;4556;49.150;8.808;2023-05-14T03:16:12;9.60;99.90
9043;DHT22;4556;49.150;8.808;2023-05-14T03:18:40;9.20;99.90
9043;DHT22;4556;49.150;8.808;2023-05-14T03:21:15;8.60;99.90
9043;DHT22;4556;49.150;8.808;2023-05-14T03:26:19;8.50;99.90
9043;DHT22;4556;49.150;8.808;2023-05-14T03:28:46;8.30;99.90
9043;DHT22;4556;49.150;8.808;2023-05-14T03:31:16;8.30;99.90
9043;DHT22;4556;49.150;8.808;2023-05-14T03:33:49;8.30;99.90
9043;DHT22;4556;49.150;8.808;2023-05-14T03:36:16;8.80;99.90
9043;DHT22;4556;49.150;8.808;2023-05-14T03:38:43;9.00;99.90
9043;DHT22;4556;49.150;8.808;2023-05-14T03:41:12;8.40;99.90
9043;DHT22;4556;49.150;8.808;2023-05-14T03:43:38;8.60;99.90
9043;DHT22;4556;49.150;8.808;2023-05-14T03:46:05;8.10;99.90
9043;DHT22;4556;49.150;8.808;2023-05-14T03:48:38;8.10;99.90
9043;DHT22;4556;49.150;8.808;2023-05-14T03:51:07;8.20;99.90
9043;DHT22;4556;49.150;8.808;2023-05-14T03:53:36;8.30;99.90
9043;DHT22;4556;49.150;8.808;2023-05-14T03:56:06;8.60;99.90
9043;DHT22;4556;49.150;8.808;2023-05-14T03:58:37;8.30;99.90
9043;DHT22;4556;49.150;8.808;2023-05-14T04:01:07;8.60;99.90
9043;DHT22;4556;49.150;8.808;2023-05-14T04:03:37;9.50;99.90
9043;DHT22;4556;49.150;8.808;2023-05-14T04:06:11;8.40;99.90
9043;DHT22;4556;49.150;8.808;2023-05-14T04:08:41;8.50;99.90
9043;DHT22;4556;49.150;8.808;2023-05-14T04:11:08;8.50;99.90
9043;DHT22;4556;49.150;8.808;2023-05-14T04:13:35;8.50;99.90
9043;DHT22;4556;49.150;8.808;2023-05-14T04:16:02;8.50;99.90
9043;DHT22;4556;49.150;8.808;2023-05-14T04:18:29;8.40;99.90
9043;DHT22;4556;49.150;8.808;2023-05-14T04:21:04;9.30;99.90
9043;DHT22;4556;49.150;8.808;2023-05-14T04:23:31;8.50;99.90
9043;DHT22;4556;49.150;8.808;2023-05-14T04:25:58;8.50;99.90
9043;DHT22;4556;49.150;8.808;2023-05-14T04:28:25;8.50;99.90
9043;DHT22;4556;49.150;8.808;2023-05-14T04:30:56;8.50;99.90
9043;DHT22;4556;49.150;8.808;2023-05-14T04:33:27;10.10;99.90
9043;DHT22;4556;49.150;8.808;2023-05-14T04:36:01;8.50;99.90
9043;DHT22;4556;49.150;8.808;2023-05-14T04:38:34;8.50;99.90
9043;DHT22;4556;49.150;8.808;2023-05-14T04:41:10;8.60;99.90
9043;DHT22;4556;49.150;8.808;2023-05-14T04:43:40;8.60;99.90
9043;DHT22;4556;49.150;8.808;2023-05-14T04:46:07;8.70;99.90
9043;DHT22;4556;49.150;8.808;2023-05-14T04:48:36;8.70;99.90
9043;DHT22;4556;49.150;8.808;2023-05-14T04:51:05;9.00;99.90
9043;DHT22;4556;49.150;8.808;2023-05-14T04:53:34;9.10;99.90
9043;DHT22;4556;49.150;8.808;2023-05-14T04:56:02;9.50;99.90
9043;DHT22;4556;49.150;8.808;2023-05-14T04:58:30;9.30;99.90
9043;DHT22;4556;49.150;8.808;2023-05-14T05:00:57;9.40;99.90
9043;DHT22;4556;49.150;8.808;2023-05-14T05:03:51;9.70;99.90
9043;DHT22;4556;49.150;8.808;2023-05-14T05:06:28;9.60;99.90
9043;DHT22;4556;49.150;8.808;2023-05-14T05:09:00;10.30;99.90
9043;DHT22;4556;49.150;8.808;2023-05-14T05:11:30;9.80;99.90
9043;DHT22;4556;49.150;8.808;2023-05-14T05:13:59;11.00;99.90
9043;DHT22;4556;49.150;8.808;2023-05-14T05:16:37;10.80;99.90
9043;DHT22;4556;49.150;8.808;2023-05-14T05:19:16;11.50;99.90
9043;DHT22;4556;49.150;8.808;2023-05-14T05:21:58;10.70;99.90
9043;DHT22;4556;49.150;8.808;2023-05-14T05:24:27;10.60;99.90
9043;DHT22;4556;49.150;8.808;2023-05-14T05:26:54;11.90;99.90
9043;DHT22;4556;49.150;8.808;2023-05-14T05:29:21;11.90;99.90
9043;DHT22;4556;49.150;8.808;2023-05-14T05:31:48;11.10;99.90
9043;DHT22;4556;49.150;8.808;2023-05-14T05:34:18;11.30;99.90
9043;DHT22;4556;49.150;8.808;2023-05-14T05:36:47;11.30;99.90
9043;DHT22;4556;49.150;8.808;2023-05-14T05:39:19;12.30;99.90
9043;DHT22;4556;49.150;8.808;2023-05-14T05:41:53;12.40;99.90
9043;DHT22;4556;49.150;8.808;2023-05-14T05:44:20;11.50;99.90
9043;DHT22;4556;49.150;8.808;2023-05-14T05:46:48;11.60;99.90
9043;DHT22;4556;49.150;8.808;2023-05-14T05:49:15;11.70;99.90
9043;DHT22;4556;49.150;8.808;2023-05-14T05:51:42;11.70;99.90
9043;DHT22;4556;49.150;8.808;2023-05-14T05:54:12;11.90;99.90
9043;DHT22;4556;49.150;8.808;2023-05-14T05:56:50;12.00;99.90
9043;DHT22;4556;49.150;8.808;2023-05-14T05:59:26;13.00;99.90
9043;DHT22;4556;49.150;8.808;2023-05-14T06:01:56;12.20;99.90
9043;DHT22;4556;49.150;8.808;2023-05-14T06:04:22;12.30;99.90
9043;DHT22;4556;49.150;8.808;2023-05-14T06:07:27;12.30;99.90
9043;DHT22;4556;49.150;8.808;2023-05-14T06:10:43;12.40;99.90
9043;DHT22;4556;49.150;8.808;2023-05-14T06:13:35;13.00;99.90
9043;DHT22;4556;49.150;8.808;2023-05-14T06:30:40;13.40;99.90
9043;DHT22;4556;49.150;8.808;2023-05-14T06:36:10;13.20;99.90
9043;DHT22;4556;49.150;8.808;2023-05-14T09:12:44;18.30;99.90
9043;DHT22;4556;49.150;8.808;2023-05-14T09:15:19;18.10;99.90
9043;DHT22;4556;49.150;8.808;2023-05-14T09:17:53;17.90;99.90
9043;DHT22;4556;49.150;8.808;2023-05-14T09:20:54;17.90;99.90
9043;DHT22;4556;49.150;8.808;2023-05-14T09:23:11;17.70;99.90
9043;DHT22;4556;49.150;8.808;2023-05-14T09:25:38;17.80;99.90
9043;DHT22;4556;49.150;8.808;2023-05-14T09:28:48;17.70;99.90
9043;DHT22;4556;49.150;8.808;2023-05-14T09:33:31;17.80;99.90
9043;DHT22;4556;49.150;8.808;2023-05-14T09:35:58;17.90;99.90
9043;DHT22;4556;49.150;8.808;2023-05-14T09:38:28;18.00;99.90
9043;DHT22;4556;49.150;8.808;2023-05-14T09:40:57;18.00;99.90
9043;DHT22;4556;49.150;8.808;2023-05-14T09:43:27;18.00;99.90
9043;DHT22;4556;49.150;8.808;2023-05-14T09:46:03;18.20;99.90
9043;DHT22;4556;49.150;8.808;2023-05-14T09:48:40;18.20;99.90
9043;DHT22;4556;49.150;8.808;2023-05-14T09:53:57;17.90;99.90
9043;DHT22;4556;49.150;8.808;2023-05-14T09:56:25;17.60;99.90
9043;DHT22;4556;49.150;8.808;2023-05-14T09:58:54;17.60;99.90
9043;DHT22;4556;49.150;8.808;2023-05-14T10:01:24;17.70;99.90
9043;DHT22;4556;49.150;8.808;2023-05-14T10:03:54;17.60;99.90
9043;DHT22;4556;49.150;8.808;2023-05-14T10:06:27;17.80;99.90
9043;DHT22;4556;49.150;8.808;2023-05-14T10:09:08;18.20;99.90
9043;DHT22;4556;49.150;8.808;2023-05-14T10:11:46;17.60;99.90
9043;DHT22;4556;49.150;8.808;2023-05-14T10:14:22;17.70;99.90
9043;DHT22;4556;49.150;8.808;2023-05-14T10:16:55;17.70;99.90
9043;DHT22;4556;49.150;8.808;2023-05-14T10:19:25;17.50;99.90
9043;DHT22;4556;49.150;8.808;2023-05-14T10:21:56;17.70;99.90
9043;DHT22;4556;49.150;8.808;2023-05-14T10:24:34;17.70;99.90
9043;DHT22;4556;49.150;8.808;2023-05-14T10:29:38;17.70;99.90
9043;DHT22;4556;49.150;8.808;2023-05-14T11:03:21;17.70;99.90
9043;DHT22;4556;49.150;8.808;2023-05-14T11:13:29;17.70;99.90
9043;DHT22;4556;49.150;8.808;2023-05-14T11:15:56;17.70;99.90
9043;DHT22;4556;49.150;8.808;2023-05-14T11:18:29;17.70;99.90
9043;DHT22;4556;49.150;8.808;2023-05-14T11:20:58;17.70;99.90
9043;DHT22;4556;49.150;8.808;2023-05-14T11:23:26;17.90;99.90
9043;DHT22;4556;49.150;8.808;2023-05-14T11:25:54;18.00;99.90
9043;DHT22;4556;49.150;8.808;2023-05-14T11:28:22;18.30;99.90
9043;DHT22;4556;49.150;8.808;2023-05-14T11:30:53;18.20;99.90
9043;DHT22;4556;49.150;8.808;2023-05-14T11:33:28;18.20;99.90
9043;DHT22;4556;49.150;8.808;2023-05-14T11:35:55;18.00;99.90
9043;DHT22;4556;49.150;8.808;2023-05-14T11:38:22;18.10;99.90
9043;DHT22;4556;49.150;8.808;2023-05-14T11:40:52;17.90;99.90
9043;DHT22;4556;49.150;8.808;2023-05-14T11:43:20;17.80;99.90
9043;DHT22;4556;49.150;8.808;2023-05-14T11:45:49;17.70;99.90
9043;DHT22;4556;49.150;8.808;2023-05-14T11:48:16;17.60;99.90
9043;DHT22;4556;49.150;8.808;2023-05-14T11:50:46;17.50;99.90
9043;DHT22;4556;49.150;8.808;2023-05-14T11:53:16;17.30;99.90
9043;DHT22;4556;49.150;8.808;2023-05-14T11:55:46;17.50;99.90
9043;DHT22;4556;49.150;8.808;2023-05-14T11:58:13;17.10;99.90
9043;DHT22;4556;49.150;8.808;2023-05-14T12:00:43;16.80;99.90
9043;DHT22;4556;49.150;8.808;2023-05-14T12:03:11;17.10;99.90
9043;DHT22;4556;49.150;8.808;2023-05-14T12:05:38;17.50;99.90
9043;DHT22;4556;49.150;8.808;2023-05-14T12:08:20;17.40;99.90
9043;DHT22;4556;49.150;8.808;2023-05-14T12:10:47;17.10;99.90
9043;DHT22;4556;49.150;8.808;2023-05-14T12:13:14;17.00;99.90
9043;DHT22;4556;49.150;8.808;2023-05-14T12:15:45;17.00;99.90
9043;DHT22;4556;49.150;8.808;2023-05-14T12:18:13;17.00;99.90
9043;DHT22;4556;49.150;8.808;2023-05-14T12:20:45;16.80;99.90
9043;DHT22;4556;49.150;8.808;2023-05-14T12:23:12;16.90;99.90
9043;DHT22;4556;49.150;8.808;2023-05-14T12:25:49;17.40;99.90
9043;DHT22;4556;49.150;8.808;2023-05-14T12:28:16;16.60;99.90
9043;DHT22;4556;49.150;8.808;2023-05-14T12:30:44;16.70;99.90
9043;DHT22;4556;49.150;8.808;2023-05-14T12:33:11;16.50;99.90
9043;DHT22;4556;49.150;8.808;2023-05-14T12:35:38;16.50;99.90
9043;DHT22;4556;49.150;8.808;2023-05-14T12:38:05;16.50;99.90
9043;DHT22;4556;49.150;8.808;2023-05-14T12:40:32;16.60;99.90
9043;DHT22;4556;49.150;8.808;2023-05-14T12:43:01;16.60;99.90
9043;DHT22;4556;49.150;8.808;2023-05-14T12:45:29;16.80;99.90
9043;DHT22;4556;49.150;8.808;2023-05-14T12:47:56;16.80;99.90
9043;DHT22;4556;49.150;8.808;2023-05-14T12:50:23;17.00;99.90
9043;DHT22;4556;49.150;8.808;2023-05-14T12:52:50;17.80;99.90
9043;DHT22;4556;49.150;8.808;2023-05-14T12:55:17;17.20;99.90
9043;DHT22;4556;49.150;8.808;2023-05-14T12:57:44;17.40;99.90
9043;DHT22;4556;49.150;8.808;2023-05-14T13:00:13;17.40;99.90
9043;DHT22;4556;49.150;8.808;2023-05-14T13:02:40;17.70;99.90
9043;DHT22;4556;49.150;8.808;2023-05-14T13:05:08;17.80;99.90
9043;DHT22;4556;49.150;8.808;2023-05-14T13:07:35;17.60;99.90
9043;DHT22;4556;49.150;8.808;2023-05-14T13:10:03;17.60;99.90
9043;DHT22;4556;49.150;8.808;2023-05-14T13:12:31;17.60;99.90
9043;DHT22;4556;49.150;8.808;2023-05-14T13:14:57;17.50;99.90
9043;DHT22;4556;49.150;8.808;2023-05-14T13:17:26;17.40;99.90
9043;DHT22;4556;49.150;8.808;2023-05-14T13:19:53;17.40;99.90
9043;DHT22;4556;49.150;8.808;2023-05-14T13:22:20;17.50;99.90
9043;DHT22;4556;49.150;8.808;2023-05-14T13:24:47;17.70;99.90
9043;DHT22;4556;49.150;8.808;2023-05-14T13:27:14;17.50;99.90
9043;DHT22;4556;49.150;8.808;2023-05-14T13:29:41;17.50;99.90
9043;DHT22;4556;49.150;8.808;2023-05-14T13:32:08;17.40;99.90
9043;DHT22;4556;49.150;8.808;2023-05-14T13:34:37;17.40;99.90
9043;DHT22;4556;49.150;8.808;2023-05-14T13:37:04;17.50;99.90
9043;DHT22;4556;49.150;8.808;2023-05-14T13:39:31;17.40;99.90
9043;DHT22;4556;49.150;8.808;2023-05-14T13:41:59;17.70;99.90
9043;DHT22;4556;49.150;8.808;2023-05-14T13:44:26;18.00;99.90
9043;DHT22;4556;49.150;8.808;2023-05-14T13:46:53;17.50;99.90
9043;DHT22;4556;49.150;8.808;2023-05-14T13:49:20;17.70;99.90
9043;DHT22;4556;49.150;8.808;2023-05-14T13:51:49;18.00;99.90
9043;DHT22;4556;49.150;8.808;2023-05-14T13:54:16;17.80;99.90
9043;DHT22;4556;49.150;8.808;2023-05-14T13:56:43;17.80;99.90
9043;DHT22;4556;49.150;8.808;2023-05-14T13:59:10;18.00;99.90
9043;DHT22;4556;49.150;8.808;2023-05-14T14:01:37;18.00;99.90
9043;DHT22;4556;49.150;8.808;2023-05-14T14:04:04;18.00;99.90
9043;DHT22;4556;49.150;8.808;2023-05-14T14:06:31;18.20;99.90
9043;DHT22;4556;49.150;8.808;2023-05-14T14:08:59;18.20;99.90
9043;DHT22;4556;49.150;8.808;2023-05-14T14:11:27;18.30;99.90
9043;DHT22;4556;49.150;8.808;2023-05-14T14:13:53;18.10;99.90
9043;DHT22;4556;49.150;8.808;2023-05-14T14:16:20;18.00;99.90
9043;DHT22;4556;49.150;8.808;2023-05-14T14:18:47;18.20;99.90
9043;DHT22;4556;49.150;8.808;2023-05-14T14:21:15;17.40;99.90
9043;DHT22;4556;49.150;8.808;2023-05-14T14:23:42;17.10;99.90
9043;DHT22;4556;49.150;8.808;2023-05-14T14:26:11;17.00;99.90
9043;DHT22;4556;49.150;8.808;2023-05-14T14:28:38;17.10;99.90
9043;DHT22;4556;49.150;8.808;2023-05-14T14:31:05;17.30;99.90
9043;DHT22;4556;49.150;8.808;2023-05-14T14:33:32;17.40;99.90
9043;DHT22;4556;49.150;8.808;2023-05-14T14:35:59;17.60;99.90
9043;DHT22;4556;49.150;8.808;2023-05-14T14:38:26;17.90;99.90
9043;DHT22;4556;49.150;8.808;2023-05-14T14:40:53;17.80;99.90
9043;DHT22;4556;49.150;8.808;2023-05-14T14:43:22;17.90;99.90
9043;DHT22;4556;49.150;8.808;2023-05-14T14:45:49;17.90;99.90
9043;DHT22;4556;49.150;8.808;2023-05-14T14:48:25;17.90;99.90
9043;DHT22;4556;49.150;8.808;2023-05-14T14:50:52;17.90;99.90
9043;DHT22;4556;49.150;8.808;2023-05-14T14:53:20;18.00;99.90
9043;DHT22;4556;49.150;8.808;2023-05-14T14:55:48;18.00;99.90
9043;DHT22;4556;49.150;8.808;2023-05-14T14:58:16;18.00;99.90
9043;DHT22;4556;49.150;8.808;2023-05-14T15:00:45;18.10;99.90
9043;DHT22;4556;49.150;8.808;2023-05-14T15:03:12;18.10;99.90
9043;DHT22;4556;49.150;8.808;2023-05-14T15:05:40;17.90;99.90
9043;DHT22;4556;49.150;8.808;2023-05-14T15:08:07;18.10;99.90
9043;DHT22;4556;49.150;8.808;2023-05-14T15:10:34;18.20;99.90
9043;DHT22;4556;49.150;8.808;2023-05-14T15:13:04;18.20;99.90
9043;DHT22;4556;49.150;8.808;2023-05-14T15:15:31;18.10;99.90
9043;DHT22;4556;49.150;8.808;2023-05-14T15:18:00;18.10;99.90
9043;DHT22;4556;49.150;8.808;2023-05-14T15:20:27;18.00;99.90
9043;DHT22;4556;49.150;8.808;2023-05-14T15:22:54;17.90;99.90
9043;DHT22;4556;49.150;8.808;2023-05-14T15:25:23;17.80;99.90
9043;DHT22;4556;49.150;8.808;2023-05-14T15:27:50;17.70;99.90
9043;DHT22;4556;49.150;8.808;2023-05-14T15:30:17;17.60;99.90
9043;DHT22;4556;49.150;8.808;2023-05-14T15:32:45;17.60;99.90
9043;DHT22;4556;49.150;8.808;2023-05-14T15:35:13;17.50;99.90
9043;DHT22;4556;49.150;8.808;2023-05-14T15:37:42;17.60;99.90
9043;DHT22;4556;49.150;8.808;2023-05-14T15:40:10;17.70;99.90
9043;DHT22;4556;49.150;8.808;2023-05-14T15:42:38;17.90;99.90
9043;DHT22;4556;49.150;8.808;2023-05-14T15:45:07;18.00;99.90
9043;DHT22;4556;49.150;8.808;2023-05-14T15:47:34;18.20;99.90
9043;DHT22;4556;49.150;8.808;2023-05-14T15:50:01;18.40;99.90
9043;DHT22;4556;49.150;8.808;2023-05-14T15:52:31;18.60;99.90
9043;DHT22;4556;49.150;8.808;2023-05-14T15:54:58;18.50;99.90
9043;DHT22;4556;49.150;8.808;2023-05-14T15:57:25;18.50;99.90
9043;DHT22;4556;49.150;8.808;2023-05-14T15:59:52;18.50;99.90
9043;DHT22;4556;49.150;8.808;2023-05-14T16:02:19;18.50;99.90
9043;DHT22;4556;49.150;8.808;2023-05-14T16:04:46;18.30;99.90
9043;DHT22;4556;49.150;8.808;2023-05-14T16:07:14;18.20;99.90
9043;DHT22;4556;49.150;8.808;2023-05-14T16:09:42;18.50;99.90
9043;DHT22;4556;49.150;8.808;2023-05-14T16:12:09;18.00;99.90
9043;DHT22;4556;49.150;8.808;2023-05-14T16:14:36;18.00;99.90
9043;DHT22;4556;49.150;8.808;2023-05-14T16:17:04;17.90;99.90
9043;DHT22;4556;49.150;8.808;2023-05-14T16:19:31;17.90;99.90
9043;DHT22;4556;49.150;8.808;2023-05-14T16:21:58;17.90;99.90
9043;DHT22;4556;49.150;8.808;2023-05-14T16:24:25;17.80;99.90
9043;DHT22;4556;49.150;8.808;2023-05-14T16:26:53;17.80;99.90
9043;DHT22;4556;49.150;8.808;2023-05-14T16:29:21;17.90;99.90
9043;DHT22;4556;49.150;8.808;2023-05-14T16:31:47;17.80;99.90
9043;DHT22;4556;49.150;8.808;2023-05-14T16:34:14;17.70;99.90
9043;DHT22;4556;49.150;8.808;2023-05-14T16:36:41;18.00;99.90
9043;DHT22;4556;49.150;8.808;2023-05-14T16:39:08;17.80;99.90
9043;DHT22;4556;49.150;8.808;2023-05-14T16:41:35;17.70;99.90
9043;DHT22;4556;49.150;8.808;2023-05-14T16:44:04;17.70;99.90
9043;DHT22;4556;49.150;8.808;2023-05-14T16:46:32;17.70;99.90
9043;DHT22;4556;49.150;8.808;2023-05-14T16:48:59;17.80;99.90
9043;DHT22;4556;49.150;8.808;2023-05-14T16:51:26;17.90;99.90
9043;DHT22;4556;49.150;8.808;2023-05-14T16:53:53;17.90;99.90
9043;DHT22;4556;49.150;8.808;2023-05-14T16:56:20;18.00;99.90
9043;DHT22;4556;49.150;8.808;2023-05-14T16:58:47;18.00;99.90
9043;DHT22;4556;49.150;8.808;2023-05-14T17:01:16;18.00;99.90
9043;DHT22;4556;49.150;8.808;2023-05-14T17:03:43;17.90;99.90
9043;DHT22;4556;49.150;8.808;2023-05-14T17:06:10;18.10;99.90
9043;DHT22;4556;49.150;8.808;2023-05-14T17:08:37;18.00;99.90
9043;DHT22;4556;49.150;8.808;2023-05-14T17:11:04;17.40;99.90
9043;DHT22;4556;49.150;8.808;2023-05-14T17:13:31;16.90;99.90
9043;DHT22;4556;49.150;8.808;2023-05-14T17:15:58;16.70;99.90
9043;DHT22;4556;49.150;8.808;2023-05-14T17:18:26;16.10;99.90
9043;DHT22;4556;49.150;8.808;2023-05-14T17:20:53;16.20;99.90
9043;DHT22;4556;49.150;8.808;2023-05-14T17:23:20;16.40;99.90
9043;DHT22;4556;49.150;8.808;2023-05-14T17:25:47;16.20;99.90
9043;DHT22;4556;49.150;8.808;2023-05-14T17:28:14;16.60;99.90
9043;DHT22;4556;49.150;8.808;2023-05-14T17:30:41;15.80;99.90
9043;DHT22;4556;49.150;8.808;2023-05-14T17:33:08;16.30;99.90
9043;DHT22;4556;49.150;8.808;2023-05-14T17:35:37;16.50;99.90
9043;DHT22;4556;49.150;8.808;2023-05-14T17:38:04;18.00;99.90
9043;DHT22;4556;49.150;8.808;2023-05-14T17:40:31;17.90;99.90
9043;DHT22;4556;49.150;8.808;2023-05-14T17:42:59;16.90;99.90
9043;DHT22;4556;49.150;8.808;2023-05-14T17:45:26;17.10;99.90
9043;DHT22;4556;49.150;8.808;2023-05-14T17:47:53;16.80;99.90
9043;DHT22;4556;49.150;8.808;2023-05-14T17:50:20;16.40;99.90
9043;DHT22;4556;49.150;8.808;2023-05-14T17:52:48;16.60;99.90
9043;DHT22;4556;49.150;8.808;2023-05-14T17:55:16;17.00;99.90
9043;DHT22;4556;49.150;8.808;2023-05-14T17:57:43;16.40;99.90
9043;DHT22;4556;49.150;8.808;2023-05-14T18:00:11;16.10;99.90
9043;DHT22;4556;49.150;8.808;2023-05-14T18:02:38;15.90;99.90
9043;DHT22;4556;49.150;8.808;2023-05-14T18:05:06;15.70;99.90
9043;DHT22;4556;49.150;8.808;2023-05-14T18:07:34;15.70;99.90
9043;DHT22;4556;49.150;8.808;2023-05-14T18:10:03;15.70;99.90
9043;DHT22;4556;49.150;8.808;2023-05-14T18:12:30;15.80;99.90
9043;DHT22;4556;49.150;8.808;2023-05-14T18:14:57;15.80;99.90
9043;DHT22;4556;49.150;8.808;2023-05-14T18:17:24;15.80;99.90
9043;DHT22;4556;49.150;8.808;2023-05-14T18:19:51;15.40;99.90
9043;DHT22;4556;49.150;8.808;2023-05-14T18:22:18;15.30;99.90
9043;DHT22;4556;49.150;8.808;2023-05-14T18:24:46;16.40;99.90
9043;DHT22;4556;49.150;8.808;2023-05-14T18:27:15;16.30;99.90
9043;DHT22;4556;49.150;8.808;2023-05-14T18:29:41;15.30;99.90
9043;DHT22;4556;49.150;8.808;2023-05-14T18:32:11;15.20;99.90
9043;DHT22;4556;49.150;8.808;2023-05-14T18:34:39;15.30;99.90
9043;DHT22;4556;49.150;8.808;2023-05-14T18:37:11;14.80;99.90
9043;DHT22;4556;49.150;8.808;2023-05-14T18:39:38;14.60;99.90
9043;DHT22;4556;49.150;8.808;2023-05-14T18:42:05;14.40;99.90
9043;DHT22;4556;49.150;8.808;2023-05-14T18:44:35;14.40;99.90
9043;DHT22;4556;49.150;8.808;2023-05-14T18:47:04;15.00;99.90
9043;DHT22;4556;49.150;8.808;2023-05-14T18:49:31;14.50;99.90
9043;DHT22;4556;49.150;8.808;2023-05-14T18:51:58;14.40;99.90
9043;DHT22;4556;49.150;8.808;2023-05-14T18:54:26;14.40;99.90
9043;DHT22;4556;49.150;8.808;2023-05-14T18:56:53;14.70;99.90
9043;DHT22;4556;49.150;8.808;2023-05-14T18:59:20;14.10;99.90
9043;DHT22;4556;49.150;8.808;2023-05-14T19:01:49;14.00;99.90
9043;DHT22;4556;49.150;8.808;2023-05-14T19:04:16;13.90;99.90
9043;DHT22;4556;49.150;8.808;2023-05-14T19:06:43;13.80;99.90
9043;DHT22;4556;49.150;8.808;2023-05-14T19:09:10;13.90;99.90
9043;DHT22;4556;49.150;8.808;2023-05-14T19:11:39;13.60;99.90
9043;DHT22;4556;49.150;8.808;2023-05-14T19:14:06;13.20;99.90
9043;DHT22;4556;49.150;8.808;2023-05-14T19:16:33;13.00;99.90
9043;DHT22;4556;49.150;8.808;2023-05-14T19:19:03;12.90;99.90
9043;DHT22;4556;49.150;8.808;2023-05-14T19:21:30;13.50;99.90
9043;DHT22;4556;49.150;8.808;2023-05-14T19:23:57;13.00;99.90
9043;DHT22;4556;49.150;8.808;2023-05-14T19:26:28;12.80;99.90
9043;DHT22;4556;49.150;8.808;2023-05-14T19:28:55;12.70;99.90
9043;DHT22;4556;49.150;8.808;2023-05-14T19:31:26;13.50;99.90
9043;DHT22;4556;49.150;8.808;2023-05-14T19:33:53;12.70;99.90
9043;DHT22;4556;49.150;8.808;2023-05-14T19:36:25;12.50;99.90
9043;DHT22;4556;49.150;8.808;2023-05-14T19:38:52;12.60;99.90
9043;DHT22;4556;49.150;8.808;2023-05-14T19:41:19;12.70;99.90
9043;DHT22;4556;49.150;8.808;2023-05-14T19:43:46;12.60;99.90
9043;DHT22;4556;49.150;8.808;2023-05-14T19:46:13;12.50;99.90
9043;DHT22;4556;49.150;8.808;2023-05-14T19:48:40;12.20;99.90
9043;DHT22;4556;49.150;8.808;2023-05-14T19:51:07;12.10;99.90
9043;DHT22;4556;49.150;8.808;2023-05-14T19:53:36;12.10;99.90
9043;DHT22;4556;49.150;8.808;2023-05-14T19:56:04;12.00;99.90
9043;DHT22;4556;49.150;8.808;2023-05-14T19:58:31;12.00;99.90
9043;DHT22;4556;49.150;8.808;2023-05-14T20:01:01;12.60;99.90
9043;DHT22;4556;49.150;8.808;2023-05-14T20:03:30;12.60;99.90
9043;DHT22;4556;49.150;8.808;2023-05-14T20:05:57;12.20;99.90
9043;DHT22;4556;49.150;8.808;2023-05-14T20:08:29;12.10;99.90
9043;DHT22;4556;49.150;8.808;2023-05-14T20:10:58;12.10;99.90